Terminal Aerodrome Forecast
Issued by NWS

Home | Current Version | Previous Version | Text Only | Print | Product List | Glossary On
Versions: 1 2 3 4 5 6 7 8 9 10 11 12 13 14 15
000
FTUS41 KBTV 202340
TAFMPV
TAF
KMPV 202340Z 2100/2124 01007KT P6SM SCT080 BKN250
     FM210400 00000KT 2SM BR OVC035
     FM210600 00000KT 1/4SM FG VV001
     FM211300 36004KT 2SM BR BKN002
     FM211430 36004KT P6SM FEW250=

USA.gov is the U.S. government's official web portal to all federal, state and local government web resources and services.